VRMM/MLE METAR and TAF weather

Enter ICAO airport designator
Station Type Date Time Source
VRMM METAR 2018/12/12 11:00 UTC NOAA

VRMM 121100Z 33004KT 4000 HZ FEW018 BKN270 30/24 Q1011 NOSIG


Station Type Date Time Source
VRMM Decoded METAR 2018/12/12 11:00 UTC NOAA

Male, Maldives (VRMM) 04-12N 073-32E 2M
Dec 12, 2018 - 06:00 AM EST / 2018.12.12 1100 UTC
Wind: from the NNW (330 degrees) at 5 MPH (4 KT):0
Visibility: 2 mile(s):0
Sky conditions: mostly cloudy
Weather: haze
Temperature: 86 F (30 C)
Heat index: 95.0 F (35.0 C):1
Dew Point: 75 F (24 C)
Relative Humidity: 70%
Pressure (altimeter): 29.85 in. Hg (1011 hPa)
ob: VRMM 121100Z 33004KT 4000 HZ FEW018 BKN270 30/24 Q1011 NOSIG
cycle: 11

Station Type Date Time Source
VRMM TAF 2018/12/12 12:06 UTC NOAA

TAF VRMM 121100Z 1212/1318 30006KT 5000 HZ FEW018
TEMPO 1212/1218 4000 HZ FEW018CB


Example: see airport list